createdAt,value
2022-09-25T00:01:04.775Z,4.90
2022-09-25T00:03:32.989Z,4.80
2022-09-25T00:06:05.930Z,4.60
2022-09-25T00:08:34.289Z,4.67
2022-09-25T00:11:07.181Z,4.87
2022-09-25T00:13:35.405Z,5.10
2022-09-25T00:16:04.055Z,4.60
2022-09-25T00:18:49.789Z,4.67
2022-09-25T00:21:18.600Z,4.50
2022-09-25T00:23:47.139Z,4.47
2022-09-25T00:26:18.316Z,4.50
2022-09-25T00:28:46.009Z,4.87
2022-09-25T00:31:20.427Z,4.23
2022-09-25T00:33:48.153Z,4.23
2022-09-25T00:36:15.829Z,4.10
2022-09-25T00:38:48.870Z,4.00
2022-09-25T00:41:20.348Z,3.93
2022-09-25T00:43:50.652Z,4.10
2022-09-25T00:46:21.985Z,3.97
2022-09-25T00:48:52.670Z,3.90
2022-09-25T00:51:29.010Z,4.00
2022-09-25T00:54:01.386Z,3.87
2022-09-25T00:56:35.750Z,4.37
2022-09-25T00:59:03.985Z,4.70
2022-09-25T01:01:32.007Z,4.13
2022-09-25T01:04:00.536Z,4.33
2022-09-25T01:06:29.100Z,4.13
2022-09-25T01:08:58.035Z,4.13
2022-09-25T01:11:25.723Z,4.00
2022-09-25T01:13:58.122Z,3.97
2022-09-25T01:16:32.796Z,3.80
2022-09-25T01:19:16.309Z,3.80
2022-09-25T01:21:47.589Z,3.80
2022-09-25T01:24:40.940Z,3.57
2022-09-25T01:27:38.173Z,3.87
2022-09-25T01:30:11.468Z,3.67
2022-09-25T01:32:58.174Z,3.40
2022-09-25T01:35:37.482Z,3.80
2022-09-25T01:38:15.787Z,4.20
2022-09-25T01:40:55.289Z,4.43
2022-09-25T01:43:29.026Z,4.03
2022-09-25T01:46:02.391Z,3.70
2022-09-25T01:48:33.473Z,4.00
2022-09-25T01:51:05.384Z,4.10
2022-09-25T01:53:41.764Z,4.40
2022-09-25T01:56:19.019Z,4.30
2022-09-25T01:58:52.181Z,4.97
2022-09-25T02:01:27.376Z,4.70
2022-09-25T02:04:00.689Z,5.10
2022-09-25T02:06:29.099Z,4.90
2022-09-25T02:09:01.596Z,5.30
2022-09-25T02:11:32.734Z,4.93
2022-09-25T02:14:06.450Z,4.63
2022-09-25T02:16:38.633Z,4.67
2022-09-25T02:19:24.412Z,4.70
2022-09-25T02:22:00.109Z,5.20
2022-09-25T02:24:34.821Z,4.97
2022-09-25T02:27:02.940Z,5.57
2022-09-25T02:29:30.932Z,4.90
2022-09-25T02:32:04.539Z,5.50
2022-09-25T02:34:32.613Z,5.07
2022-09-25T02:37:00.347Z,4.73
2022-09-25T02:39:30.951Z,4.73
2022-09-25T02:42:13.735Z,4.77
2022-09-25T02:44:52.467Z,4.50
2022-09-25T02:47:34.548Z,5.00
2022-09-25T02:50:09.001Z,4.77
2022-09-25T02:52:43.917Z,4.77
2022-09-25T02:55:16.421Z,4.77
2022-09-25T02:57:48.529Z,5.00
2022-09-25T03:00:16.684Z,5.00
2022-09-25T03:02:52.128Z,4.80
2022-09-25T03:05:21.538Z,5.20
2022-09-25T03:08:07.298Z,5.00
2022-09-25T03:10:37.857Z,4.97
2022-09-25T03:13:16.696Z,4.50
2022-09-25T03:15:47.555Z,4.90
2022-09-25T03:18:16.744Z,5.07
2022-09-25T03:20:45.246Z,5.10
2022-09-25T03:23:12.957Z,4.93
2022-09-25T03:25:42.785Z,4.90
2022-09-25T03:28:14.043Z,4.50
2022-09-25T03:30:42.575Z,4.93
2022-09-25T03:33:11.383Z,4.90
2022-09-25T03:35:40.946Z,4.50
2022-09-25T03:38:10.471Z,4.70
2022-09-25T03:40:38.344Z,4.83
2022-09-25T03:45:32.846Z,4.60
2022-09-25T03:48:00.558Z,5.13
2022-09-25T03:50:28.285Z,4.90
2022-09-25T03:52:57.358Z,4.70
2022-09-25T03:55:26.025Z,5.20
2022-09-25T03:57:53.713Z,5.10
2022-09-25T04:00:21.419Z,5.23
2022-09-25T04:02:50.016Z,4.83
2022-09-25T04:05:20.057Z,5.53
2022-09-25T04:07:48.292Z,5.50
2022-09-25T04:10:17.572Z,5.27
2022-09-25T04:12:45.267Z,5.40
2022-09-25T04:15:13.000Z,5.10
2022-09-25T04:17:40.708Z,5.63
2022-09-25T04:20:09.533Z,5.33
2022-09-25T04:22:37.588Z,5.10
2022-09-25T04:25:06.024Z,5.60
2022-09-25T04:27:35.106Z,5.73
2022-09-25T04:30:02.837Z,5.80
2022-09-25T04:32:59.324Z,5.80
2022-09-25T04:35:27.395Z,5.70
2022-09-25T04:37:55.108Z,5.50
2022-09-25T04:40:22.863Z,5.43
2022-09-25T04:42:56.594Z,6.13
2022-09-25T04:45:26.577Z,6.07
2022-09-25T04:47:54.928Z,7.77
2022-09-25T04:50:22.705Z,9.90
2022-09-25T04:52:51.281Z,11.03
2022-09-25T04:55:19.359Z,12.77
2022-09-25T04:57:58.876Z,13.73
2022-09-25T05:00:30.520Z,16.23
2022-09-25T05:02:59.020Z,16.23
2022-09-25T05:05:28.158Z,17.90
2022-09-25T05:07:57.396Z,16.80
2022-09-25T05:10:27.322Z,16.70
2022-09-25T05:12:56.445Z,16.33
2022-09-25T05:15:24.160Z,17.07
2022-09-25T05:18:00.801Z,16.67
2022-09-25T05:20:28.612Z,17.23
2022-09-25T05:22:57.130Z,16.60
2022-09-25T05:25:25.397Z,16.67
2022-09-25T05:27:55.729Z,16.90
2022-09-25T05:30:24.051Z,17.20
2022-09-25T05:32:54.029Z,16.60
2022-09-25T05:35:23.983Z,16.53
2022-09-25T05:37:52.034Z,16.97
2022-09-25T05:40:21.267Z,17.73
2022-09-25T05:42:49.269Z,18.13
2022-09-25T05:45:18.275Z,17.57
2022-09-25T05:47:46.041Z,17.60
2022-09-25T05:50:16.798Z,17.03
2022-09-25T05:52:44.831Z,17.67
2022-09-25T05:55:12.655Z,17.13
2022-09-25T05:57:40.378Z,17.27
2022-09-25T06:00:11.448Z,16.77
2022-09-25T06:02:41.944Z,17.83
2022-09-25T06:05:10.598Z,17.90
2022-09-25T06:07:39.977Z,17.17
2022-09-25T06:10:09.829Z,17.50
2022-09-25T06:12:37.572Z,17.10
2022-09-25T06:15:06.204Z,16.73
2022-09-25T06:17:33.918Z,17.10
2022-09-25T06:20:01.947Z,16.37
2022-09-25T06:22:30.157Z,14.53
2022-09-25T06:24:59.380Z,14.37
2022-09-25T06:27:27.528Z,13.90
2022-09-25T06:29:55.241Z,12.40
2022-09-25T06:32:23.374Z,14.03
2022-09-25T06:34:51.104Z,13.70
2022-09-25T06:37:18.806Z,14.50
2022-09-25T06:39:46.511Z,13.77
2022-09-25T06:42:15.581Z,14.43
2022-09-25T06:44:43.873Z,15.53
2022-09-25T06:47:18.261Z,15.10
2022-09-25T06:49:47.189Z,15.97
2022-09-25T06:52:14.915Z,16.33
2022-09-25T06:54:44.306Z,14.43
2022-09-25T06:57:12.684Z,16.13
2022-09-25T06:59:41.826Z,16.10
2022-09-25T07:02:24.448Z,16.57
2022-09-25T07:04:52.264Z,16.80
2022-09-25T07:07:21.034Z,16.33
2022-09-25T07:09:49.184Z,16.80
2022-09-25T07:12:17.622Z,16.57
2022-09-25T07:14:47.599Z,15.80
2022-09-25T07:17:15.718Z,16.43
2022-09-25T07:19:43.426Z,16.47
2022-09-25T07:22:11.759Z,15.90
2022-09-25T07:24:39.665Z,17.30
2022-09-25T07:27:07.339Z,15.97
2022-09-25T07:29:35.504Z,15.80
2022-09-25T07:32:04.679Z,17.23
2022-09-25T07:34:32.394Z,17.10
2022-09-25T07:37:00.205Z,17.13
2022-09-25T07:39:27.897Z,15.50
2022-09-25T07:41:55.612Z,14.90
2022-09-25T07:44:37.499Z,15.70
2022-09-25T07:47:08.783Z,14.83
2022-09-25T07:49:36.695Z,15.17
2022-09-25T07:52:06.100Z,14.77
2022-09-25T07:54:34.512Z,14.83
2022-09-25T07:57:02.233Z,15.13
2022-09-25T07:59:29.961Z,16.30
2022-09-25T08:01:58.883Z,14.00
2022-09-25T08:04:27.949Z,14.03
2022-09-25T08:06:55.652Z,14.90
2022-09-25T08:09:23.335Z,15.43
2022-09-25T08:11:51.067Z,15.30
2022-09-25T08:14:23.270Z,14.20
2022-09-25T08:16:55.795Z,14.63
2022-09-25T08:19:24.068Z,14.70
2022-09-25T08:21:53.111Z,14.83
2022-09-25T08:24:20.847Z,14.50
2022-09-25T08:26:48.699Z,16.10
2022-09-25T08:29:16.386Z,15.27
2022-09-25T08:31:44.245Z,15.43
2022-09-25T08:34:36.229Z,16.13
2022-09-25T08:37:01.000Z,16.77
2022-09-25T08:39:28.740Z,14.63
2022-09-25T08:41:57.848Z,16.17
2022-09-25T08:44:31.649Z,15.10
2022-09-25T08:47:20.589Z,14.73
2022-09-25T08:49:56.304Z,13.30
2022-09-25T08:52:25.596Z,12.60
2022-09-25T08:54:54.442Z,13.13
2022-09-25T08:57:31.374Z,13.33
2022-09-25T09:00:03.248Z,12.57
2022-09-25T09:02:39.378Z,13.07
2022-09-25T09:05:18.210Z,12.20
2022-09-25T09:07:50.689Z,11.30
2022-09-25T09:10:29.006Z,11.37
2022-09-25T09:13:02.570Z,10.50
2022-09-25T09:15:41.195Z,11.23
2022-09-25T09:18:20.034Z,10.90
2022-09-25T09:20:52.930Z,10.57
2022-09-25T09:23:24.110Z,9.30
2022-09-25T09:26:03.286Z,10.50
2022-09-25T09:28:54.606Z,9.83
2022-09-25T09:31:28.420Z,9.20
2022-09-25T09:34:09.921Z,9.23
2022-09-25T09:36:45.539Z,9.10
2022-09-25T09:39:21.571Z,9.47
2022-09-25T09:42:01.743Z,10.27
2022-09-25T09:44:57.655Z,8.33
2022-09-25T09:47:41.769Z,8.87
2022-09-25T09:50:24.395Z,7.47
2022-09-25T09:52:59.134Z,8.40
2022-09-25T09:55:36.578Z,9.17
2022-09-25T09:58:09.448Z,10.00
2022-09-25T10:00:39.492Z,10.00
2022-09-25T10:03:19.620Z,8.83
2022-09-25T10:05:49.176Z,9.10
2022-09-25T10:08:17.537Z,8.57
2022-09-25T10:10:51.226Z,7.33
2022-09-25T10:13:21.348Z,8.47
2022-09-25T10:15:53.419Z,8.53
2022-09-25T10:18:23.623Z,8.73
2022-09-25T10:20:56.736Z,9.83
2022-09-25T10:23:38.952Z,8.47
2022-09-25T10:26:24.331Z,9.90
2022-09-25T10:28:52.160Z,9.13
2022-09-25T10:31:21.346Z,8.77
2022-09-25T10:34:04.897Z,9.60
2022-09-25T10:36:40.021Z,9.27
2022-09-25T10:39:43.416Z,8.63
2022-09-25T10:42:37.174Z,8.77
2022-09-25T10:45:27.529Z,8.97
2022-09-25T10:48:12.788Z,8.53
2022-09-25T10:50:40.604Z,8.50
2022-09-25T10:53:30.225Z,8.00
2022-09-25T10:56:04.973Z,7.60
2022-09-25T10:58:39.370Z,8.43
2022-09-25T11:01:13.552Z,8.77
2022-09-25T11:03:55.944Z,8.43
2022-09-25T11:06:26.798Z,8.13
2022-09-25T11:09:07.806Z,8.07
2022-09-25T11:11:37.717Z,8.83
2022-09-25T11:14:09.344Z,7.97
2022-09-25T11:16:47.365Z,7.40
2022-09-25T11:19:18.828Z,8.77
2022-09-25T11:21:57.013Z,9.37
2022-09-25T11:24:30.553Z,9.97
2022-09-25T11:27:05.856Z,8.90
2022-09-25T11:29:43.184Z,8.90
2022-09-25T11:32:21.285Z,8.03
2022-09-25T11:35:19.723Z,7.50
2022-09-25T11:37:57.389Z,6.83
2022-09-25T11:40:57.141Z,7.23
2022-09-25T11:43:37.419Z,7.27
2022-09-25T11:46:14.326Z,7.70
2022-09-25T11:48:51.966Z,6.90
2022-09-25T11:51:32.240Z,10.00
2022-09-25T11:54:31.910Z,10.17
2022-09-25T11:57:05.040Z,7.23
2022-09-25T11:59:46.809Z,7.67
2022-09-25T12:02:29.042Z,7.20
2022-09-25T12:05:17.583Z,6.63
2022-09-25T12:08:03.544Z,6.60
2022-09-25T12:10:43.758Z,7.13
2022-09-25T12:13:21.212Z,7.13
2022-09-25T12:15:58.840Z,13.23
2022-09-25T12:18:43.646Z,7.03
2022-09-25T12:21:17.859Z,6.47
2022-09-25T12:23:51.974Z,5.97
2022-09-25T12:26:26.028Z,5.80
2022-09-25T12:29:09.839Z,6.13
2022-09-25T12:31:46.596Z,6.53
2022-09-25T12:34:33.633Z,7.30
2022-09-25T12:37:14.374Z,8.03
2022-09-25T12:39:45.800Z,5.70
2022-09-25T12:42:18.043Z,5.67
2022-09-25T12:44:52.981Z,5.60
2022-09-25T12:47:29.362Z,13.43
2022-09-25T12:50:04.999Z,12.33
2022-09-25T12:52:40.601Z,8.07
2022-09-25T12:55:18.745Z,9.87
2022-09-25T12:57:55.671Z,7.53
2022-09-25T13:00:25.872Z,7.23
2022-09-25T13:03:00.988Z,6.93
2022-09-25T13:05:35.088Z,5.80
2022-09-25T13:08:11.057Z,5.97
2022-09-25T13:10:40.928Z,6.33
2022-09-25T13:13:13.425Z,5.93
2022-09-25T13:15:43.090Z,6.27
2022-09-25T13:18:17.809Z,5.63
2022-09-25T13:20:51.979Z,5.30
2022-09-25T13:23:33.246Z,5.83
2022-09-25T13:26:10.120Z,5.70
2022-09-25T13:28:41.800Z,5.80
2022-09-25T13:31:12.291Z,5.37
2022-09-25T13:33:47.068Z,5.43
2022-09-25T13:36:33.244Z,5.20
2022-09-25T13:39:20.537Z,5.43
2022-09-25T13:41:51.691Z,5.37
2022-09-25T13:44:53.661Z,5.87
2022-09-25T13:47:45.392Z,5.80
2022-09-25T13:50:27.200Z,5.30
2022-09-25T13:53:17.897Z,6.60
2022-09-25T13:56:20.552Z,5.87
2022-09-25T13:59:07.705Z,5.47
2022-09-25T14:01:38.500Z,5.50
2022-09-25T14:04:12.132Z,4.80
2022-09-25T14:06:42.060Z,4.70
2022-09-25T14:09:14.358Z,4.57
2022-09-25T14:11:51.534Z,5.50
2022-09-25T14:14:28.909Z,5.50
2022-09-25T14:16:59.545Z,5.57
2022-09-25T14:19:31.916Z,6.47
2022-09-25T14:22:01.443Z,5.53
2022-09-25T14:24:31.930Z,4.63
2022-09-25T14:27:01.092Z,4.80
2022-09-25T14:29:32.712Z,8.67
2022-09-25T14:32:42.850Z,8.10
2022-09-25T14:35:25.356Z,7.00
2022-09-25T14:38:11.098Z,5.47
2022-09-25T14:40:45.603Z,4.90
2022-09-25T14:46:11.942Z,6.30
2022-09-25T14:48:44.889Z,7.37
2022-09-25T14:51:16.171Z,6.57
2022-09-25T14:53:47.394Z,6.10
2022-09-25T14:56:16.726Z,5.47
2022-09-25T14:58:47.749Z,5.23
2022-09-25T15:01:22.918Z,4.20
2022-09-25T15:03:51.465Z,4.00
2022-09-25T15:06:27.228Z,3.80
2022-09-25T15:08:55.020Z,5.27
2022-09-25T15:11:29.554Z,4.43
2022-09-25T15:14:11.173Z,3.57
2022-09-25T15:16:57.518Z,3.43
2022-09-25T15:19:28.974Z,3.20
2022-09-25T15:21:57.127Z,3.90
2022-09-25T15:24:28.596Z,3.27
2022-09-25T15:27:03.580Z,3.77
2022-09-25T15:29:36.289Z,3.40
2022-09-25T15:32:06.384Z,3.10
2022-09-25T15:34:35.176Z,2.70
2022-09-25T15:37:20.841Z,2.43
2022-09-25T15:39:48.555Z,2.67
2022-09-25T15:42:17.662Z,2.90
2022-09-25T15:44:46.054Z,2.60
2022-09-25T15:47:46.091Z,2.63
2022-09-25T15:50:22.529Z,2.63
2022-09-25T15:52:52.652Z,2.40
2022-09-25T15:55:22.208Z,2.17
2022-09-25T15:57:53.870Z,2.43
2022-09-25T16:00:41.115Z,2.20
2022-09-25T16:03:35.445Z,2.30
2022-09-25T16:06:04.284Z,2.17
2022-09-25T16:08:34.028Z,2.23
2022-09-25T16:11:18.455Z,1.97
2022-09-25T16:13:51.658Z,2.13
2022-09-25T16:16:29.364Z,2.30
2022-09-25T16:18:58.955Z,2.10
2022-09-25T16:21:31.672Z,2.10
2022-09-25T16:24:01.834Z,1.90
2022-09-25T16:26:39.333Z,2.17
2022-09-25T16:29:20.429Z,2.30
2022-09-25T16:31:53.943Z,2.17
2022-09-25T16:34:27.044Z,2.10
2022-09-25T16:36:57.648Z,2.40
2022-09-25T16:39:29.466Z,2.27
2022-09-25T16:41:59.908Z,2.50
2022-09-25T16:44:46.734Z,2.50
2022-09-25T16:47:18.688Z,2.80
2022-09-25T16:49:46.707Z,2.77
2022-09-25T16:52:22.204Z,2.90
2022-09-25T16:54:54.390Z,3.60
2022-09-25T16:57:23.255Z,3.83
2022-09-25T16:59:52.931Z,3.70
2022-09-25T17:02:33.275Z,3.27
2022-09-25T17:05:03.601Z,2.80
2022-09-25T17:07:31.403Z,2.70
2022-09-25T17:10:00.879Z,3.00
2022-09-25T17:12:30.370Z,3.10
2022-09-25T17:14:59.711Z,3.40
2022-09-25T17:17:29.443Z,3.60
2022-09-25T17:19:57.290Z,4.20
2022-09-25T17:22:29.473Z,4.00
2022-09-25T17:25:01.850Z,6.13
2022-09-25T17:27:29.623Z,7.87
2022-09-25T17:29:57.341Z,7.20
2022-09-25T17:32:26.847Z,5.10
2022-09-25T17:34:57.486Z,4.40
2022-09-25T17:37:25.221Z,3.90
2022-09-25T17:39:52.988Z,4.03
2022-09-25T17:42:20.917Z,3.57
2022-09-25T17:44:49.342Z,3.77
2022-09-25T17:47:17.035Z,3.67
2022-09-25T17:49:46.280Z,3.70
2022-09-25T17:52:17.612Z,3.80
2022-09-25T17:54:45.704Z,4.03
2022-09-25T17:57:13.447Z,3.93
2022-09-25T17:59:41.142Z,4.90
2022-09-25T18:02:16.789Z,4.97
2022-09-25T18:04:45.960Z,5.30
2022-09-25T18:07:15.183Z,5.83
2022-09-25T18:09:42.936Z,5.57
2022-09-25T18:12:10.641Z,6.27
2022-09-25T18:14:38.357Z,6.63
2022-09-25T18:17:06.171Z,6.17
2022-09-25T18:19:51.738Z,5.53
2022-09-25T18:22:25.194Z,5.77
2022-09-25T18:24:56.557Z,6.73
2022-09-25T18:27:26.159Z,6.10
2022-09-25T18:29:53.914Z,6.27
2022-09-25T18:32:22.152Z,6.30
2022-09-25T18:34:49.846Z,6.63
2022-09-25T18:37:17.605Z,6.37
2022-09-25T18:39:47.932Z,6.10
2022-09-25T18:42:15.692Z,5.87
2022-09-25T18:44:43.494Z,5.67
2022-09-25T18:47:11.467Z,5.97
2022-09-25T18:49:39.159Z,5.97
2022-09-25T18:52:07.019Z,6.03
2022-09-25T18:54:35.451Z,6.27
2022-09-25T18:57:04.669Z,5.93
2022-09-25T18:59:32.588Z,6.53
2022-09-25T19:02:00.877Z,6.47
2022-09-25T19:04:28.875Z,6.60
2022-09-25T19:06:56.627Z,6.50
2022-09-25T19:09:27.216Z,6.47
2022-09-25T19:11:55.069Z,6.23
2022-09-25T19:14:24.837Z,6.27
2022-09-25T19:16:53.130Z,6.43
2022-09-25T19:19:21.039Z,6.87
2022-09-25T19:21:48.811Z,6.57
2022-09-25T19:24:18.156Z,6.43
2022-09-25T19:26:45.958Z,6.70
2022-09-25T19:29:13.819Z,6.43
2022-09-25T19:31:43.044Z,6.63
2022-09-25T19:34:10.855Z,6.50
2022-09-25T19:36:38.640Z,7.13
2022-09-25T19:39:06.360Z,7.17
2022-09-25T19:41:36.203Z,7.30
2022-09-25T19:44:12.244Z,7.20
2022-09-25T19:46:43.845Z,7.57
2022-09-25T19:49:12.204Z,7.37
2022-09-25T19:51:40.248Z,6.90
2022-09-25T19:54:09.361Z,7.27
2022-09-25T19:56:40.482Z,7.60
2022-09-25T19:59:08.929Z,7.93
2022-09-25T20:01:36.918Z,7.53
2022-09-25T20:04:08.475Z,7.73
2022-09-25T20:06:37.788Z,8.30
2022-09-25T20:09:06.908Z,8.13
2022-09-25T20:11:36.325Z,8.33
2022-09-25T20:14:06.286Z,9.70
2022-09-25T20:16:34.031Z,8.77
2022-09-25T20:19:03.864Z,9.37
2022-09-25T20:21:35.933Z,8.43
2022-09-25T20:24:05.282Z,10.80
2022-09-25T20:26:33.685Z,10.80
2022-09-25T20:29:03.379Z,9.90
2022-09-25T20:31:34.292Z,10.80
2022-09-25T20:34:02.402Z,9.77
2022-09-25T20:36:30.371Z,10.50
2022-09-25T20:39:00.814Z,10.53
2022-09-25T20:41:28.578Z,10.70
2022-09-25T20:43:58.108Z,11.53
2022-09-25T20:46:27.429Z,11.07
2022-09-25T20:48:58.313Z,11.77
2022-09-25T20:51:27.907Z,11.30
2022-09-25T20:53:57.687Z,11.10
2022-09-25T20:56:27.981Z,11.23
2022-09-25T20:58:56.735Z,10.43
2022-09-25T21:01:26.243Z,10.97
2022-09-25T21:03:54.651Z,11.90
2022-09-25T21:06:24.305Z,11.30
2022-09-25T21:08:52.986Z,12.03
2022-09-25T21:11:20.963Z,12.17
2022-09-25T21:13:52.955Z,12.13
2022-09-25T21:16:25.371Z,11.67
2022-09-25T21:18:55.174Z,11.80
2022-09-25T21:21:24.266Z,12.17
2022-09-25T21:23:53.825Z,11.60
2022-09-25T21:26:23.151Z,11.47
2022-09-25T21:28:54.037Z,12.10
2022-09-25T21:31:23.715Z,11.93
2022-09-25T21:33:52.860Z,12.83
2022-09-25T21:36:23.426Z,12.30
2022-09-25T21:38:51.482Z,13.57
2022-09-25T21:41:20.840Z,12.33
2022-09-25T21:43:49.337Z,12.60
2022-09-25T21:46:20.498Z,13.57
2022-09-25T21:48:50.321Z,12.97
2022-09-25T21:51:19.706Z,13.20
2022-09-25T21:53:47.830Z,13.87
2022-09-25T21:56:18.310Z,14.20
2022-09-25T21:58:47.156Z,13.83
2022-09-25T22:01:18.895Z,14.03
2022-09-25T22:03:50.011Z,13.90
2022-09-25T22:06:20.157Z,12.50
2022-09-25T22:08:49.712Z,12.53
2022-09-25T22:11:17.694Z,12.40
2022-09-25T22:13:46.758Z,13.40
2022-09-25T22:16:18.046Z,13.27
2022-09-25T22:18:49.618Z,13.37
2022-09-25T22:21:19.221Z,14.10
2022-09-25T22:23:47.736Z,13.67
2022-09-25T22:26:17.151Z,13.27
2022-09-25T22:28:45.372Z,12.97
2022-09-25T22:31:15.449Z,12.83
2022-09-25T22:33:43.804Z,13.83
2022-09-25T22:36:13.286Z,13.13
2022-09-25T22:38:41.878Z,12.33
2022-09-25T22:41:11.039Z,12.37
2022-09-25T22:43:39.530Z,12.10
2022-09-25T22:46:08.722Z,12.83
2022-09-25T22:48:36.617Z,12.77
2022-09-25T22:51:06.709Z,12.43
2022-09-25T22:53:36.758Z,11.93
2022-09-25T22:56:12.639Z,12.50
2022-09-25T22:58:40.589Z,12.10
2022-09-25T23:01:12.156Z,11.90
2022-09-25T23:03:40.420Z,12.87
2022-09-25T23:06:08.842Z,12.37
2022-09-25T23:08:37.997Z,12.20
2022-09-25T23:11:08.280Z,12.17
2022-09-25T23:13:37.292Z,12.33
2022-09-25T23:16:07.204Z,12.50
2022-09-25T23:18:35.382Z,13.00
2022-09-25T23:21:03.143Z,12.27
2022-09-25T23:23:31.013Z,12.03
2022-09-25T23:26:06.048Z,12.43
2022-09-25T23:28:35.012Z,12.93
2022-09-25T23:31:10.834Z,11.80
2022-09-25T23:33:39.688Z,12.80
2022-09-25T23:36:09.597Z,12.63
2022-09-25T23:38:37.922Z,12.50
2022-09-25T23:41:16.478Z,12.67
2022-09-25T23:43:45.196Z,11.83
2022-09-25T23:46:13.683Z,11.50
2022-09-25T23:48:41.464Z,11.00
2022-09-25T23:51:09.264Z,11.17
2022-09-25T23:53:37.519Z,12.00
2022-09-25T23:56:09.103Z,12.43
2022-09-25T23:58:38.554Z,13.40
